CSN3513 ZGGG-ZSNJ
Flight info
| Callsign | CSN3513 |
|---|---|
| Flight time | 1h 48m |
| Altitude | 31100 |
| Route | MIKIP9 MIKIP A461 LKO R343 HFE HFE52F |
| Aircraft | B738/M-SDE2E3FGHIRWXY/LB1 |
Departure
| Time | 2026-04-26 12:16 |
|---|---|
| Airport | Guangzhou Baiyun International Airport (ZGGG) |
Arrival
| Time | 2026-04-26 14:04 |
|---|---|
| Airport | Nanjing Lukou International Airport (ZSNJ) |
| Time | Latitude | Longitude | Altitude | Speed | Heading |
|---|---|---|---|---|---|
| 2026-04-26 11:33 | 23.38429 | 113.30153 | 52 ft | 0 kts | 232° |
| 2026-04-26 12:05 | 23.38435 | 113.30161 | 52 ft | 4 kts | 232° |
| 2026-04-26 12:05 | 23.38451 | 113.30184 | 50 ft | 4 kts | 232° |
| 2026-04-26 12:05 | 23.38467 | 113.30206 | 53 ft | 4 kts | 220° |
| 2026-04-26 12:06 | 23.38488 | 113.30216 | 54 ft | 4 kts | 166° |
| 2026-04-26 12:06 | 23.38511 | 113.30203 | 53 ft | 4 kts | 141° |
| 2026-04-26 12:06 | 23.38516 | 113.30198 | 50 ft | 0 kts | 142° |
| 2026-04-26 12:08 | 23.38492 | 113.30219 | 55 ft | 8 kts | 142° |
| 2026-04-26 12:08 | 23.38443 | 113.30261 | 55 ft | 9 kts | 142° |
| 2026-04-26 12:08 | 23.38404 | 113.30316 | 57 ft | 9 kts | 109° |
| 2026-04-26 12:09 | 23.38386 | 113.30388 | 51 ft | 11 kts | 104° |
| 2026-04-26 12:09 | 23.38418 | 113.30458 | 56 ft | 13 kts | 26° |
| 2026-04-26 12:09 | 23.38516 | 113.30486 | 53 ft | 17 kts | 13° |
| 2026-04-26 12:09 | 23.38641 | 113.30518 | 53 ft | 20 kts | 13° |
| 2026-04-26 12:10 | 23.38788 | 113.30560 | 53 ft | 23 kts | 16° |
| 2026-04-26 12:10 | 23.38938 | 113.30602 | 52 ft | 22 kts | 12° |
| 2026-04-26 12:10 | 23.39087 | 113.30641 | 56 ft | 22 kts | 12° |
| 2026-04-26 12:10 | 23.39233 | 113.30675 | 53 ft | 21 kts | 12° |
| 2026-04-26 12:11 | 23.39373 | 113.30712 | 53 ft | 20 kts | 15° |
| 2026-04-26 12:11 | 23.39508 | 113.30755 | 54 ft | 20 kts | 15° |
| 2026-04-26 12:11 | 23.39640 | 113.30790 | 53 ft | 19 kts | 13° |
| 2026-04-26 12:11 | 23.39768 | 113.30823 | 53 ft | 19 kts | 13° |
| 2026-04-26 12:12 | 23.39788 | 113.30828 | 55 ft | 1 kts | 13° |
| 2026-04-26 12:12 | 23.39815 | 113.30835 | 54 ft | 9 kts | 13° |
| 2026-04-26 12:12 | 23.39900 | 113.30861 | 57 ft | 17 kts | 16° |
| 2026-04-26 12:12 | 23.39984 | 113.30885 | 55 ft | 19 kts | 14° |
| 2026-04-26 12:13 | 23.40159 | 113.30930 | 53 ft | 19 kts | 14° |
| 2026-04-26 12:13 | 23.40286 | 113.30965 | 53 ft | 19 kts | 14° |
| 2026-04-26 12:13 | 23.40409 | 113.30999 | 53 ft | 18 kts | 14° |
| 2026-04-26 12:13 | 23.40479 | 113.31019 | 52 ft | 9 kts | 14° |
| 2026-04-26 12:14 | 23.40553 | 113.31040 | 56 ft | 14 kts | 15° |
| 2026-04-26 12:14 | 23.40668 | 113.31073 | 53 ft | 20 kts | 15° |
| 2026-04-26 12:14 | 23.40768 | 113.31184 | 55 ft | 24 kts | 39° |
| 2026-04-26 12:14 | 23.40917 | 113.31260 | 53 ft | 20 kts | 75° |
| 2026-04-26 12:15 | 23.40897 | 113.31387 | 52 ft | 16 kts | 105° |
| 2026-04-26 12:15 | 23.40871 | 113.31425 | 53 ft | 1 kts | 194° |
| 2026-04-26 12:15 | 23.40825 | 113.31412 | 53 ft | 29 kts | 194° |
| 2026-04-26 12:15 | 23.40384 | 113.31295 | 50 ft | 100 kts | 193° |
| 2026-04-26 12:16 | 23.39501 | 113.31062 | 56 ft | 159 kts | 191° |
| 2026-04-26 12:16 | 23.38299 | 113.30767 | 369 ft | 185 kts | 193° |
| 2026-04-26 12:16 | 23.37085 | 113.30420 | 1110 ft | 188 kts | 193° |
| 2026-04-26 12:16 | 23.35765 | 113.30059 | 1731 ft | 199 kts | 193° |
| 2026-04-26 12:17 | 23.34343 | 113.29673 | 2003 ft | 223 kts | 193° |
| 2026-04-26 12:17 | 23.32783 | 113.29248 | 2377 ft | 236 kts | 193° |
| 2026-04-26 12:17 | 23.31130 | 113.28798 | 2671 ft | 256 kts | 194° |
| 2026-04-26 12:17 | 23.29367 | 113.28394 | 3332 ft | 260 kts | 184° |
| 2026-04-26 12:18 | 23.27566 | 113.28376 | 4213 ft | 259 kts | 180° |
| 2026-04-26 12:18 | 23.25750 | 113.28391 | 4986 ft | 263 kts | 181° |
| 2026-04-26 12:18 | 23.23926 | 113.28398 | 5679 ft | 269 kts | 182° |
| 2026-04-26 12:18 | 23.22036 | 113.28390 | 6367 ft | 274 kts | 182° |
| 2026-04-26 12:19 | 23.20115 | 113.28376 | 7065 ft | 278 kts | 182° |
| 2026-04-26 12:19 | 23.18183 | 113.28285 | 7791 ft | 278 kts | 190° |
| 2026-04-26 12:19 | 23.16281 | 113.27861 | 8509 ft | 280 kts | 194° |
| 2026-04-26 12:19 | 23.14369 | 113.27384 | 9195 ft | 284 kts | 188° |
| 2026-04-26 12:20 | 23.12404 | 113.27586 | 9856 ft | 289 kts | 159° |
| 2026-04-26 12:20 | 23.10712 | 113.28797 | 10321 ft | 302 kts | 133° |
| 2026-04-26 12:20 | 23.09676 | 113.30807 | 10640 ft | 319 kts | 107° |
| 2026-04-26 12:20 | 23.09182 | 113.33184 | 11193 ft | 326 kts | 103° |
| 2026-04-26 12:21 | 23.08850 | 113.35630 | 11786 ft | 332 kts | 90° |
| 2026-04-26 12:21 | 23.09360 | 113.38084 | 12381 ft | 338 kts | 65° |
| 2026-04-26 12:21 | 23.10571 | 113.40284 | 13009 ft | 342 kts | 57° |
| 2026-04-26 12:21 | 23.11895 | 113.42448 | 13590 ft | 346 kts | 57° |
| 2026-04-26 12:22 | 23.13224 | 113.44647 | 14156 ft | 349 kts | 57° |
| 2026-04-26 12:22 | 23.14575 | 113.46852 | 14714 ft | 352 kts | 51° |
| 2026-04-26 12:22 | 23.16390 | 113.48584 | 15218 ft | 355 kts | 28° |
| 2026-04-26 12:22 | 23.18680 | 113.49553 | 15809 ft | 354 kts | 14° |
| 2026-04-26 12:23 | 23.21069 | 113.50242 | 16357 ft | 357 kts | 12° |
| 2026-04-26 12:23 | 23.23485 | 113.50918 | 16889 ft | 360 kts | 12° |
| 2026-04-26 12:23 | 23.25918 | 113.51622 | 17434 ft | 363 kts | 13° |
| 2026-04-26 12:23 | 23.28362 | 113.52349 | 17990 ft | 366 kts | 13° |
| 2026-04-26 12:24 | 23.30825 | 113.53071 | 18475 ft | 368 kts | 11° |
| 2026-04-26 12:24 | 23.33337 | 113.53630 | 18915 ft | 370 kts | 7° |
| 2026-04-26 12:24 | 23.35851 | 113.54103 | 19355 ft | 373 kts | 7° |
| 2026-04-26 12:25 | 23.41006 | 113.55092 | 20271 ft | 379 kts | 7° |
| 2026-04-26 12:25 | 23.43610 | 113.55617 | 20724 ft | 382 kts | 8° |
| 2026-04-26 12:25 | 23.46248 | 113.55861 | 21132 ft | 380 kts | 350° |
| 2026-04-26 12:25 | 23.48761 | 113.55085 | 21589 ft | 375 kts | 330° |
| 2026-04-26 12:26 | 23.50904 | 113.53516 | 22040 ft | 370 kts | 315° |
| 2026-04-26 12:26 | 23.52778 | 113.51585 | 22489 ft | 372 kts | 312° |
| 2026-04-26 12:26 | 23.54598 | 113.49625 | 22896 ft | 375 kts | 312° |
| 2026-04-26 12:26 | 23.56460 | 113.47616 | 23323 ft | 378 kts | 312° |
| 2026-04-26 12:27 | 23.58343 | 113.45605 | 23709 ft | 380 kts | 312° |
| 2026-04-26 12:27 | 23.60242 | 113.43598 | 24091 ft | 381 kts | 313° |
| 2026-04-26 12:27 | 23.62154 | 113.41591 | 24489 ft | 382 kts | 313° |
| 2026-04-26 12:27 | 23.64073 | 113.39580 | 24858 ft | 384 kts | 313° |
| 2026-04-26 12:28 | 23.66019 | 113.37579 | 25233 ft | 386 kts | 318° |
| 2026-04-26 12:28 | 23.68373 | 113.36123 | 25557 ft | 396 kts | 338° |
| 2026-04-26 12:28 | 23.71046 | 113.35531 | 25920 ft | 403 kts | 355° |
| 2026-04-26 12:28 | 23.73867 | 113.35681 | 26312 ft | 407 kts | 1° |
| 2026-04-26 12:29 | 23.76691 | 113.35975 | 26653 ft | 409 kts | 2° |
| 2026-04-26 12:29 | 23.79529 | 113.36304 | 26988 ft | 411 kts | 2° |
| 2026-04-26 12:29 | 23.85242 | 113.36953 | 27693 ft | 414 kts | 2° |
| 2026-04-26 12:30 | 23.88109 | 113.37261 | 28048 ft | 415 kts | 1° |
| 2026-04-26 12:30 | 23.90948 | 113.37555 | 28396 ft | 416 kts | 1° |
| 2026-04-26 12:30 | 23.93832 | 113.37850 | 28749 ft | 416 kts | 1° |
| 2026-04-26 12:31 | 23.99615 | 113.38432 | 29405 ft | 419 kts | 1° |
| 2026-04-26 12:31 | 24.02520 | 113.38725 | 29721 ft | 420 kts | 1° |
| 2026-04-26 12:31 | 24.05438 | 113.39018 | 30026 ft | 422 kts | 1° |
| 2026-04-26 12:31 | 24.08366 | 113.39314 | 30308 ft | 423 kts | 1° |
| 2026-04-26 12:32 | 24.11307 | 113.39610 | 30542 ft | 425 kts | 1° |
| 2026-04-26 12:32 | 24.14221 | 113.39904 | 30755 ft | 427 kts | 1° |
| 2026-04-26 12:32 | 24.20166 | 113.40505 | 31048 ft | 433 kts | 1° |
| 2026-04-26 12:33 | 24.23183 | 113.40810 | 31060 ft | 438 kts | 1° |
| 2026-04-26 12:33 | 24.29320 | 113.41432 | 31075 ft | 448 kts | 1° |
| 2026-04-26 12:34 | 24.35599 | 113.42057 | 31080 ft | 456 kts | 359° |
| 2026-04-26 12:34 | 24.41939 | 113.42241 | 31072 ft | 462 kts | 356° |
| 2026-04-26 12:35 | 24.48416 | 113.42355 | 31072 ft | 469 kts | 357° |
| 2026-04-26 12:35 | 24.54986 | 113.42548 | 31064 ft | 475 kts | 358° |
| 2026-04-26 12:36 | 24.61621 | 113.42747 | 31045 ft | 478 kts | 357° |
| 2026-04-26 12:36 | 24.68240 | 113.42958 | 31070 ft | 481 kts | 357° |
| 2026-04-26 12:37 | 24.74933 | 113.43161 | 31060 ft | 480 kts | 357° |
| 2026-04-26 12:37 | 24.81610 | 113.43343 | 31063 ft | 479 kts | 357° |
| 2026-04-26 12:38 | 24.88279 | 113.43530 | 31054 ft | 479 kts | 357° |
| 2026-04-26 12:38 | 24.94898 | 113.43720 | 31069 ft | 479 kts | 357° |
| 2026-04-26 12:39 | 25.01558 | 113.43913 | 31065 ft | 479 kts | 357° |
| 2026-04-26 12:39 | 25.08225 | 113.44106 | 31067 ft | 479 kts | 357° |
| 2026-04-26 12:40 | 25.14893 | 113.44300 | 31065 ft | 480 kts | 357° |
| 2026-04-26 12:40 | 25.21524 | 113.44492 | 31070 ft | 480 kts | 357° |
| 2026-04-26 12:41 | 25.28200 | 113.44686 | 31057 ft | 480 kts | 357° |
| 2026-04-26 12:41 | 25.34870 | 113.44877 | 31077 ft | 481 kts | 357° |
| 2026-04-26 12:42 | 25.41569 | 113.45075 | 31071 ft | 483 kts | 357° |
| 2026-04-26 12:42 | 25.48237 | 113.45270 | 31073 ft | 482 kts | 357° |
| 2026-04-26 12:43 | 25.54947 | 113.45466 | 31090 ft | 483 kts | 357° |
| 2026-04-26 12:43 | 25.61676 | 113.45662 | 31083 ft | 484 kts | 357° |
| 2026-04-26 12:44 | 25.68416 | 113.45860 | 31076 ft | 485 kts | 357° |
| 2026-04-26 12:44 | 25.75122 | 113.46057 | 31071 ft | 485 kts | 357° |
| 2026-04-26 12:45 | 25.81864 | 113.46256 | 31077 ft | 484 kts | 357° |
| 2026-04-26 12:45 | 25.88596 | 113.46453 | 31068 ft | 484 kts | 357° |
| 2026-04-26 12:46 | 25.95331 | 113.46659 | 31077 ft | 483 kts | 357° |
| 2026-04-26 12:46 | 26.02013 | 113.46867 | 31063 ft | 484 kts | 358° |
| 2026-04-26 12:47 | 26.08735 | 113.47080 | 31062 ft | 481 kts | 358° |
| 2026-04-26 12:47 | 26.15444 | 113.47289 | 31049 ft | 483 kts | 358° |
| 2026-04-26 12:48 | 26.22168 | 113.47492 | 31038 ft | 483 kts | 358° |
| 2026-04-26 12:48 | 26.28891 | 113.47697 | 31038 ft | 484 kts | 358° |
| 2026-04-26 12:49 | 26.35574 | 113.47905 | 31033 ft | 483 kts | 358° |
| 2026-04-26 12:49 | 26.42300 | 113.48113 | 31021 ft | 483 kts | 358° |
| 2026-04-26 12:50 | 26.49020 | 113.48322 | 31024 ft | 483 kts | 358° |
| 2026-04-26 12:50 | 26.55732 | 113.48531 | 31012 ft | 483 kts | 358° |
| 2026-04-26 12:51 | 26.62400 | 113.48739 | 31011 ft | 483 kts | 358° |
| 2026-04-26 12:51 | 26.69116 | 113.48948 | 31011 ft | 483 kts | 357° |
| 2026-04-26 12:52 | 26.75838 | 113.49158 | 31008 ft | 483 kts | 357° |
| 2026-04-26 12:52 | 26.82567 | 113.49367 | 31005 ft | 484 kts | 357° |
| 2026-04-26 12:53 | 26.89255 | 113.49577 | 31015 ft | 484 kts | 357° |
| 2026-04-26 12:53 | 26.95985 | 113.49788 | 31014 ft | 483 kts | 357° |
| 2026-04-26 12:54 | 27.02706 | 113.49999 | 31007 ft | 483 kts | 357° |
| 2026-04-26 12:54 | 27.09425 | 113.50210 | 31009 ft | 482 kts | 357° |
| 2026-04-26 12:55 | 27.16086 | 113.50419 | 31012 ft | 482 kts | 357° |
| 2026-04-26 12:55 | 27.22781 | 113.50630 | 31012 ft | 481 kts | 357° |
| 2026-04-26 12:56 | 27.29465 | 113.50824 | 31002 ft | 480 kts | 357° |
| 2026-04-26 12:56 | 27.36131 | 113.50985 | 31003 ft | 479 kts | 357° |
| 2026-04-26 12:57 | 27.42793 | 113.51147 | 30999 ft | 479 kts | 357° |
| 2026-04-26 12:57 | 27.49402 | 113.51312 | 31012 ft | 478 kts | 357° |
| 2026-04-26 12:58 | 27.59381 | 113.51563 | 30992 ft | 478 kts | 357° |
| 2026-04-26 12:58 | 27.66034 | 113.51755 | 30988 ft | 479 kts | 358° |
| 2026-04-26 12:59 | 27.72645 | 113.52273 | 30993 ft | 480 kts | 0° |
| 2026-04-26 12:59 | 27.79307 | 113.52905 | 30996 ft | 480 kts | 0° |
| 2026-04-26 13:00 | 27.82633 | 113.53211 | 31814 ft | 480 kts | 4° |
| 2026-04-26 13:00 | 27.85969 | 113.53507 | 31547 ft | 481 kts | 4° |
| 2026-04-26 13:00 | 27.89308 | 113.53791 | 31347 ft | 481 kts | 4° |
| 2026-04-26 13:00 | 27.92640 | 113.54071 | 31233 ft | 479 kts | 4° |
| 2026-04-26 13:01 | 27.99204 | 113.54626 | 31115 ft | 473 kts | 4° |
| 2026-04-26 13:01 | 28.05724 | 113.55183 | 31097 ft | 467 kts | 4° |
| 2026-04-26 13:02 | 28.12157 | 113.55726 | 31094 ft | 461 kts | 4° |
| 2026-04-26 13:02 | 28.18519 | 113.56171 | 31094 ft | 455 kts | 3° |
| 2026-04-26 13:03 | 28.24769 | 113.56585 | 31095 ft | 451 kts | 3° |
| 2026-04-26 13:03 | 28.31016 | 113.57012 | 31097 ft | 447 kts | 3° |
| 2026-04-26 13:04 | 28.37207 | 113.57442 | 31098 ft | 444 kts | 3° |
| 2026-04-26 13:04 | 28.43362 | 113.57870 | 31100 ft | 442 kts | 3° |
| 2026-04-26 13:05 | 28.49442 | 113.58291 | 31100 ft | 439 kts | 3° |
| 2026-04-26 13:05 | 28.55533 | 113.58692 | 31100 ft | 438 kts | 3° |
| 2026-04-26 13:06 | 28.61600 | 113.59086 | 31100 ft | 436 kts | 3° |
| 2026-04-26 13:06 | 28.67647 | 113.59483 | 31100 ft | 435 kts | 3° |
| 2026-04-26 13:07 | 28.73637 | 113.59877 | 31101 ft | 433 kts | 3° |
| 2026-04-26 13:07 | 28.79659 | 113.60301 | 31102 ft | 433 kts | 4° |
| 2026-04-26 13:08 | 28.85658 | 113.60773 | 31099 ft | 432 kts | 4° |
| 2026-04-26 13:08 | 28.91649 | 113.61245 | 31100 ft | 431 kts | 4° |
| 2026-04-26 13:09 | 28.97592 | 113.61708 | 31102 ft | 431 kts | 4° |
| 2026-04-26 13:09 | 29.03562 | 113.62171 | 31099 ft | 430 kts | 4° |
| 2026-04-26 13:10 | 29.09532 | 113.62634 | 31101 ft | 429 kts | 4° |
| 2026-04-26 13:10 | 29.15492 | 113.63097 | 31103 ft | 429 kts | 4° |
| 2026-04-26 13:11 | 29.21412 | 113.63558 | 31099 ft | 429 kts | 4° |
| 2026-04-26 13:11 | 29.27370 | 113.64024 | 31101 ft | 429 kts | 4° |
| 2026-04-26 13:12 | 29.33318 | 113.64505 | 31101 ft | 429 kts | 4° |
| 2026-04-26 13:12 | 29.39265 | 113.64991 | 31105 ft | 428 kts | 4° |
| 2026-04-26 13:13 | 29.45173 | 113.65474 | 31100 ft | 429 kts | 4° |
| 2026-04-26 13:13 | 29.51123 | 113.65959 | 31102 ft | 428 kts | 4° |
| 2026-04-26 13:14 | 29.57071 | 113.66444 | 31101 ft | 428 kts | 4° |
| 2026-04-26 13:14 | 29.63013 | 113.66930 | 31100 ft | 428 kts | 4° |
| 2026-04-26 13:15 | 29.68917 | 113.67413 | 31102 ft | 428 kts | 4° |
| 2026-04-26 13:15 | 29.73894 | 113.67820 | 31101 ft | 428 kts | 4° |
| 2026-04-26 13:16 | 29.80800 | 113.68387 | 31101 ft | 428 kts | 4° |
| 2026-04-26 13:16 | 29.86736 | 113.68874 | 31101 ft | 428 kts | 4° |
| 2026-04-26 13:17 | 29.92511 | 113.70214 | 31104 ft | 428 kts | 21° |
| 2026-04-26 13:17 | 29.95213 | 113.71640 | 31111 ft | 427 kts | 26° |
| 2026-04-26 13:18 | 30.03152 | 113.76340 | 31100 ft | 428 kts | 27° |
| 2026-04-26 13:19 | 30.11069 | 113.80986 | 31101 ft | 428 kts | 26° |
| 2026-04-26 13:19 | 30.16384 | 113.84075 | 31101 ft | 428 kts | 26° |
| 2026-04-26 13:20 | 30.21699 | 113.87162 | 31101 ft | 428 kts | 26° |
| 2026-04-26 13:20 | 30.27016 | 113.90255 | 31101 ft | 428 kts | 26° |
| 2026-04-26 13:21 | 30.32293 | 113.93330 | 31101 ft | 428 kts | 26° |
| 2026-04-26 13:21 | 30.37616 | 113.96435 | 31101 ft | 428 kts | 26° |
| 2026-04-26 13:22 | 30.42931 | 113.99540 | 31101 ft | 428 kts | 26° |
| 2026-04-26 13:22 | 30.48242 | 114.02647 | 31102 ft | 428 kts | 26° |
| 2026-04-26 13:23 | 30.53525 | 114.05740 | 31101 ft | 428 kts | 26° |
| 2026-04-26 13:23 | 30.58840 | 114.08861 | 31101 ft | 428 kts | 27° |
| 2026-04-26 13:24 | 30.64159 | 114.11999 | 31101 ft | 428 kts | 27° |
| 2026-04-26 13:24 | 30.69432 | 114.15114 | 31101 ft | 428 kts | 27° |
| 2026-04-26 13:25 | 30.74738 | 114.18266 | 31099 ft | 428 kts | 30° |
| 2026-04-26 13:25 | 30.77125 | 114.20322 | 31099 ft | 428 kts | 45° |
| 2026-04-26 13:25 | 30.78999 | 114.22997 | 31102 ft | 427 kts | 59° |
| 2026-04-26 13:25 | 30.80280 | 114.26100 | 31113 ft | 426 kts | 70° |
| 2026-04-26 13:26 | 30.81291 | 114.29293 | 31105 ft | 426 kts | 70° |
| 2026-04-26 13:26 | 30.83303 | 114.35786 | 31099 ft | 427 kts | 70° |
| 2026-04-26 13:27 | 30.85369 | 114.42271 | 31100 ft | 427 kts | 70° |
| 2026-04-26 13:27 | 30.87481 | 114.48829 | 31112 ft | 439 kts | 69° |
| 2026-04-26 13:28 | 30.89654 | 114.55532 | 31112 ft | 451 kts | 69° |
| 2026-04-26 13:28 | 30.91895 | 114.62456 | 31112 ft | 462 kts | 69° |
| 2026-04-26 13:29 | 30.94177 | 114.69528 | 31111 ft | 471 kts | 69° |
| 2026-04-26 13:29 | 30.96495 | 114.76736 | 31110 ft | 479 kts | 70° |
| 2026-04-26 13:30 | 30.98829 | 114.84005 | 31108 ft | 485 kts | 70° |
| 2026-04-26 13:30 | 31.01205 | 114.91421 | 31105 ft | 491 kts | 70° |
| 2026-04-26 13:31 | 31.03612 | 114.98921 | 31103 ft | 496 kts | 69° |
| 2026-04-26 13:31 | 31.06051 | 115.06479 | 31103 ft | 500 kts | 69° |
| 2026-04-26 13:32 | 31.08486 | 115.14053 | 31102 ft | 504 kts | 70° |
| 2026-04-26 13:32 | 31.10946 | 115.21725 | 31104 ft | 506 kts | 70° |
| 2026-04-26 13:33 | 31.13371 | 115.29469 | 31101 ft | 509 kts | 70° |
| 2026-04-26 13:33 | 31.15857 | 115.37220 | 31104 ft | 511 kts | 69° |
| 2026-04-26 13:34 | 31.18365 | 115.44933 | 31101 ft | 512 kts | 69° |
| 2026-04-26 13:34 | 31.20882 | 115.52725 | 31103 ft | 514 kts | 69° |
| 2026-04-26 13:35 | 31.23395 | 115.60550 | 31104 ft | 515 kts | 70° |
| 2026-04-26 13:35 | 31.25905 | 115.68392 | 31104 ft | 516 kts | 70° |
| 2026-04-26 13:36 | 31.28418 | 115.76255 | 31101 ft | 517 kts | 70° |
| 2026-04-26 13:36 | 31.30889 | 115.83993 | 31089 ft | 503 kts | 70° |
| 2026-04-26 13:37 | 31.33312 | 115.91549 | 31092 ft | 490 kts | 69° |
| 2026-04-26 13:37 | 31.35716 | 115.98912 | 31093 ft | 480 kts | 69° |
| 2026-04-26 13:37 | 31.36904 | 116.02543 | 30975 ft | 478 kts | 69° |
| 2026-04-26 13:38 | 31.38094 | 116.06185 | 30713 ft | 480 kts | 69° |
| 2026-04-26 13:38 | 31.39284 | 116.09839 | 30475 ft | 483 kts | 69° |
| 2026-04-26 13:38 | 31.40471 | 116.13495 | 30244 ft | 492 kts | 69° |
| 2026-04-26 13:38 | 31.41695 | 116.17269 | 30006 ft | 500 kts | 69° |
| 2026-04-26 13:39 | 31.42936 | 116.21105 | 29765 ft | 507 kts | 69° |
| 2026-04-26 13:39 | 31.44194 | 116.24995 | 29522 ft | 514 kts | 69° |
| 2026-04-26 13:39 | 31.45465 | 116.28931 | 29278 ft | 520 kts | 69° |
| 2026-04-26 13:39 | 31.46748 | 116.32909 | 29033 ft | 525 kts | 69° |
| 2026-04-26 13:40 | 31.47604 | 116.35566 | 28869 ft | 527 kts | 69° |
| 2026-04-26 13:40 | 31.48898 | 116.39587 | 28732 ft | 527 kts | 69° |
| 2026-04-26 13:40 | 31.50616 | 116.44931 | 28647 ft | 520 kts | 69° |
| 2026-04-26 13:40 | 31.51865 | 116.48822 | 28376 ft | 515 kts | 69° |
| 2026-04-26 13:41 | 31.53122 | 116.52742 | 28129 ft | 512 kts | 69° |
| 2026-04-26 13:41 | 31.54369 | 116.56637 | 27879 ft | 509 kts | 69° |
| 2026-04-26 13:41 | 31.55209 | 116.59264 | 27710 ft | 507 kts | 69° |
| 2026-04-26 13:41 | 31.56840 | 116.64370 | 27379 ft | 504 kts | 70° |
| 2026-04-26 13:42 | 31.58065 | 116.68209 | 27130 ft | 502 kts | 70° |
| 2026-04-26 13:42 | 31.59284 | 116.72037 | 26881 ft | 500 kts | 70° |
| 2026-04-26 13:42 | 31.60089 | 116.74565 | 26716 ft | 499 kts | 70° |
| 2026-04-26 13:42 | 31.61299 | 116.78372 | 26452 ft | 497 kts | 70° |
| 2026-04-26 13:43 | 31.62496 | 116.82141 | 25733 ft | 490 kts | 70° |
| 2026-04-26 13:43 | 31.64078 | 116.87128 | 24181 ft | 495 kts | 70° |
| 2026-04-26 13:43 | 31.64891 | 116.89696 | 23446 ft | 496 kts | 70° |
| 2026-04-26 13:43 | 31.66090 | 116.93485 | 22569 ft | 493 kts | 70° |
| 2026-04-26 13:44 | 31.67262 | 116.97189 | 22337 ft | 475 kts | 70° |
| 2026-04-26 13:44 | 31.68383 | 117.00740 | 22080 ft | 470 kts | 70° |
| 2026-04-26 13:44 | 31.69513 | 117.04349 | 21837 ft | 473 kts | 70° |
| 2026-04-26 13:44 | 31.70640 | 117.07983 | 21589 ft | 475 kts | 70° |
| 2026-04-26 13:45 | 31.71769 | 117.11636 | 21342 ft | 477 kts | 70° |
| 2026-04-26 13:45 | 31.72902 | 117.15303 | 21093 ft | 478 kts | 70° |
| 2026-04-26 13:45 | 31.74035 | 117.18969 | 20840 ft | 476 kts | 70° |
| 2026-04-26 13:45 | 31.75161 | 117.22613 | 20588 ft | 473 kts | 70° |
| 2026-04-26 13:46 | 31.76095 | 117.26307 | 20309 ft | 471 kts | 82° |
| 2026-04-26 13:46 | 31.76044 | 117.30130 | 20069 ft | 468 kts | 100° |
| 2026-04-26 13:46 | 31.75163 | 117.33743 | 19831 ft | 466 kts | 114° |
| 2026-04-26 13:46 | 31.73561 | 117.37020 | 19371 ft | 460 kts | 125° |
| 2026-04-26 13:47 | 31.71683 | 117.40038 | 18693 ft | 454 kts | 127° |
| 2026-04-26 13:47 | 31.69799 | 117.42976 | 18027 ft | 447 kts | 127° |
| 2026-04-26 13:47 | 31.67952 | 117.45889 | 17364 ft | 442 kts | 127° |
| 2026-04-26 13:47 | 31.66156 | 117.48785 | 16706 ft | 436 kts | 126° |
| 2026-04-26 13:48 | 31.64398 | 117.51658 | 16053 ft | 431 kts | 126° |
| 2026-04-26 13:48 | 31.62674 | 117.54506 | 15403 ft | 426 kts | 124° |
| 2026-04-26 13:48 | 31.61461 | 117.57636 | 14920 ft | 420 kts | 103° |
| 2026-04-26 13:48 | 31.61132 | 117.60962 | 14795 ft | 404 kts | 89° |
| 2026-04-26 13:49 | 31.61368 | 117.64245 | 14737 ft | 401 kts | 83° |
| 2026-04-26 13:49 | 31.61710 | 117.67476 | 14712 ft | 409 kts | 83° |
| 2026-04-26 13:49 | 31.62077 | 117.70792 | 14438 ft | 408 kts | 83° |
| 2026-04-26 13:49 | 31.62436 | 117.74094 | 13703 ft | 409 kts | 83° |
| 2026-04-26 13:50 | 31.62784 | 117.77413 | 12925 ft | 410 kts | 83° |
| 2026-04-26 13:50 | 31.63118 | 117.80700 | 12556 ft | 399 kts | 83° |
| 2026-04-26 13:50 | 31.63432 | 117.83868 | 12450 ft | 383 kts | 84° |
| 2026-04-26 13:50 | 31.63730 | 117.86913 | 12350 ft | 369 kts | 84° |
| 2026-04-26 13:51 | 31.64015 | 117.89848 | 12260 ft | 355 kts | 84° |
| 2026-04-26 13:51 | 31.64289 | 117.92677 | 12168 ft | 341 kts | 84° |
| 2026-04-26 13:51 | 31.64551 | 117.95384 | 11888 ft | 328 kts | 84° |
| 2026-04-26 13:51 | 31.64799 | 117.97960 | 11616 ft | 316 kts | 84° |
| 2026-04-26 13:52 | 31.65041 | 118.00478 | 11334 ft | 306 kts | 84° |
| 2026-04-26 13:52 | 31.65276 | 118.02921 | 11049 ft | 297 kts | 84° |
| 2026-04-26 13:52 | 31.65505 | 118.05304 | 10705 ft | 291 kts | 84° |
| 2026-04-26 13:52 | 31.65729 | 118.07656 | 10265 ft | 289 kts | 84° |
| 2026-04-26 13:53 | 31.65953 | 118.09996 | 9821 ft | 288 kts | 84° |
| 2026-04-26 13:53 | 31.66175 | 118.12322 | 9400 ft | 286 kts | 84° |
| 2026-04-26 13:53 | 31.66395 | 118.14635 | 8978 ft | 283 kts | 84° |
| 2026-04-26 13:53 | 31.66613 | 118.16924 | 8570 ft | 281 kts | 84° |
| 2026-04-26 13:54 | 31.66737 | 118.19208 | 8275 ft | 281 kts | 89° |
| 2026-04-26 13:54 | 31.66744 | 118.21495 | 8021 ft | 280 kts | 90° |
| 2026-04-26 13:54 | 31.66733 | 118.23740 | 7773 ft | 278 kts | 91° |
| 2026-04-26 13:55 | 31.66721 | 118.28254 | 7287 ft | 275 kts | 90° |
| 2026-04-26 13:55 | 31.66721 | 118.29737 | 7129 ft | 274 kts | 90° |
| 2026-04-26 13:55 | 31.66732 | 118.34925 | 6581 ft | 270 kts | 90° |
| 2026-04-26 13:56 | 31.66738 | 118.37122 | 6348 ft | 268 kts | 90° |
| 2026-04-26 13:56 | 31.66743 | 118.39279 | 6120 ft | 267 kts | 90° |
| 2026-04-26 13:56 | 31.66730 | 118.41450 | 5888 ft | 265 kts | 95° |
| 2026-04-26 13:56 | 31.66197 | 118.43489 | 5662 ft | 261 kts | 117° |
| 2026-04-26 13:57 | 31.65411 | 118.45396 | 5443 ft | 259 kts | 116° |
| 2026-04-26 13:57 | 31.64651 | 118.47305 | 5220 ft | 257 kts | 115° |
| 2026-04-26 13:57 | 31.63902 | 118.49206 | 4998 ft | 255 kts | 115° |
| 2026-04-26 13:57 | 31.63161 | 118.51090 | 4776 ft | 254 kts | 115° |
| 2026-04-26 13:58 | 31.62425 | 118.52964 | 4553 ft | 252 kts | 115° |
| 2026-04-26 13:58 | 31.61704 | 118.54799 | 4336 ft | 250 kts | 115° |
| 2026-04-26 13:58 | 31.60977 | 118.56648 | 4120 ft | 249 kts | 115° |
| 2026-04-26 13:58 | 31.60348 | 118.58523 | 3937 ft | 245 kts | 99° |
| 2026-04-26 13:59 | 31.60590 | 118.60423 | 3906 ft | 234 kts | 62° |
| 2026-04-26 13:59 | 31.61428 | 118.62040 | 3911 ft | 231 kts | 59° |
| 2026-04-26 13:59 | 31.62231 | 118.63614 | 3917 ft | 218 kts | 59° |
| 2026-04-26 14:00 | 31.64507 | 118.67932 | 3288 ft | 203 kts | 58° |
| 2026-04-26 14:00 | 31.65239 | 118.69309 | 3027 ft | 201 kts | 58° |
| 2026-04-26 14:00 | 31.65738 | 118.70248 | 2847 ft | 200 kts | 58° |
| 2026-04-26 14:01 | 31.66701 | 118.72059 | 2491 ft | 193 kts | 58° |
| 2026-04-26 14:01 | 31.67396 | 118.73368 | 2248 ft | 184 kts | 58° |
| 2026-04-26 14:01 | 31.68053 | 118.74603 | 2018 ft | 173 kts | 58° |
| 2026-04-26 14:01 | 31.68663 | 118.75751 | 1824 ft | 158 kts | 58° |
| 2026-04-26 14:02 | 31.69241 | 118.76837 | 1592 ft | 157 kts | 58° |
| 2026-04-26 14:02 | 31.69813 | 118.77913 | 1379 ft | 154 kts | 58° |
| 2026-04-26 14:02 | 31.70379 | 118.78977 | 1175 ft | 153 kts | 58° |
| 2026-04-26 14:02 | 31.70937 | 118.80026 | 988 ft | 153 kts | 58° |
| 2026-04-26 14:03 | 31.71502 | 118.81087 | 789 ft | 154 kts | 58° |
| 2026-04-26 14:03 | 31.72067 | 118.82150 | 579 ft | 153 kts | 58° |
| 2026-04-26 14:03 | 31.72628 | 118.83202 | 376 ft | 152 kts | 58° |
| 2026-04-26 14:03 | 31.73180 | 118.84256 | 169 ft | 152 kts | 58° |
| 2026-04-26 14:04 | 31.73736 | 118.85277 | 56 ft | 138 kts | 56° |
| 2026-04-26 14:04 | 31.74177 | 118.86112 | 55 ft | 100 kts | 58° |
| 2026-04-26 14:04 | 31.74370 | 118.86649 | 58 ft | 27 kts | 91° |
| 2026-04-26 14:04 | 31.74371 | 118.86737 | 58 ft | 0 kts | 93° |
| 2026-04-26 14:05 | 31.74371 | 118.86739 | 58 ft | 0 kts | 91° |
| 2026-04-26 14:05 | 31.74371 | 118.86749 | 58 ft | 3 kts | 87° |
| 2026-04-26 14:05 | 31.74374 | 118.86799 | 58 ft | 9 kts | 86° |
| 2026-04-26 14:05 | 31.74355 | 118.86895 | 58 ft | 15 kts | 128° |
| 2026-04-26 14:06 | 31.74266 | 118.86882 | 57 ft | 17 kts | 237° |
| 2026-04-26 14:06 | 31.74196 | 118.86750 | 57 ft | 20 kts | 239° |
| 2026-04-26 14:06 | 31.74124 | 118.86617 | 57 ft | 19 kts | 238° |
| 2026-04-26 14:06 | 31.74057 | 118.86490 | 57 ft | 18 kts | 238° |
| 2026-04-26 14:07 | 31.73997 | 118.86399 | 57 ft | 13 kts | 205° |
| 2026-04-26 14:07 | 31.73913 | 118.86421 | 57 ft | 13 kts | 148° |
| 2026-04-26 14:07 | 31.73846 | 118.86393 | 57 ft | 13 kts | 255° |
| 2026-04-26 14:07 | 31.73824 | 118.86300 | 57 ft | 10 kts | 194° |
| 2026-04-26 14:08 | 31.73765 | 118.86304 | 57 ft | 7 kts | 177° |
| 2026-04-26 14:08 | 31.73747 | 118.86305 | 57 ft | 0 kts | 177° |